HCR weather

Heber City Municipal Airport - Russ McDonald Field
Heber, Utah, United States

Public forecast

Using degrees Fahrenheit for public forecast. Weather courtesy of forecast.io.

Current aviation weather report (METAR) for Heber City Municipal Airport - Russ McDonald Field

Retrieved 2019/10/15 04:30 UTC (27 minutes ago):

KHCR 150430Z AUTO 00000KT 10SM CLR 00/M12 A3015 RMK AO2

Closest aviation forecast (TAF) to Heber City Municipal Airport - Russ McDonald Field

Retrieved 2019-10-15 00:26 UTC (5 hours ago):

TAF KHCR 142326Z 1500/1524 25010KT P6SM SKC FM150100 31005KT P6SM SKC FM150200 04005KT P6SM SKC FM150900 VRB03KT P6SM SKC FM151800 24006KT P6SM SKC